createdAt,value
2022-10-19T00:00:44.922Z,36.90
2022-10-19T00:06:56.486Z,37.60
2022-10-19T00:09:58.710Z,38.33
2022-10-19T00:13:00.785Z,36.38
2022-10-19T00:16:10.613Z,37.50
2022-10-19T00:19:17.201Z,38.65
2022-10-19T00:22:19.168Z,39.60
2022-10-19T00:25:21.122Z,37.30
2022-10-19T00:28:23.176Z,41.47
2022-10-19T00:31:25.836Z,38.05
2022-10-19T00:34:27.901Z,42.20
2022-10-19T00:37:30.145Z,39.33
2022-10-19T00:40:40.436Z,40.73
2022-10-19T00:44:02.743Z,41.85
2022-10-19T00:47:07.526Z,37.35
2022-10-19T00:50:12.545Z,36.20
2022-10-19T00:53:14.881Z,37.53
2022-10-19T00:56:17.745Z,37.83
2022-10-19T00:59:22.164Z,38.17
2022-10-19T01:02:24.206Z,36.92
2022-10-19T01:05:27.671Z,35.80
2022-10-19T01:08:31.072Z,38.77
2022-10-19T01:12:01.100Z,34.33
2022-10-19T01:15:45.020Z,33.92
2022-10-19T01:19:08.461Z,36.80
2022-10-19T01:22:50.912Z,36.28
2022-10-19T01:26:02.030Z,37.27
2022-10-19T01:29:09.985Z,36.50
2022-10-19T01:32:21.271Z,36.08
2022-10-19T01:35:29.923Z,37.58
2022-10-19T01:38:53.382Z,40.38
2022-10-19T01:42:24.208Z,39.03
2022-10-19T01:45:28.619Z,36.63
2022-10-19T01:48:34.866Z,41.97
2022-10-19T01:51:43.872Z,40.20
2022-10-19T01:54:50.596Z,39.20
2022-10-19T01:57:59.410Z,41.37
2022-10-19T02:01:06.253Z,42.00
2022-10-19T02:04:09.061Z,42.17
2022-10-19T02:07:11.716Z,40.25
2022-10-19T02:13:21.880Z,41.13
2022-10-19T02:16:35.070Z,40.53
2022-10-19T02:19:37.439Z,38.22
2022-10-19T02:22:40.166Z,42.60
2022-10-19T02:25:42.250Z,37.53
2022-10-19T02:28:44.656Z,38.10
2022-10-19T02:31:46.741Z,38.23
2022-10-19T02:34:48.747Z,42.15
2022-10-19T02:37:51.030Z,41.65
2022-10-19T02:41:16.174Z,41.15
2022-10-19T02:44:26.594Z,43.53
2022-10-19T02:47:36.945Z,40.37
2022-10-19T02:50:44.326Z,39.85
2022-10-19T02:53:46.602Z,41.08
2022-10-19T02:56:48.499Z,40.17
2022-10-19T02:59:51.679Z,39.43
2022-10-19T03:02:53.623Z,41.17
2022-10-19T03:05:55.822Z,37.75
2022-10-19T03:08:57.777Z,35.22
2022-10-19T03:11:59.894Z,35.78
2022-10-19T03:15:01.911Z,41.70
2022-10-19T03:18:04.387Z,37.10
2022-10-19T03:21:09.491Z,36.55
2022-10-19T03:24:12.306Z,35.50
2022-10-19T03:27:14.385Z,35.13
2022-10-19T03:30:17.756Z,37.80
2022-10-19T03:33:19.930Z,34.80
2022-10-19T03:36:27.510Z,37.88
2022-10-19T03:39:29.576Z,36.65
2022-10-19T03:42:31.622Z,35.05
2022-10-19T03:45:33.635Z,37.00
2022-10-19T03:48:36.049Z,38.20
2022-10-19T03:51:38.054Z,38.35
2022-10-19T03:54:40.101Z,36.30
2022-10-19T03:57:42.626Z,37.72
2022-10-19T04:00:45.386Z,37.63
2022-10-19T04:03:47.776Z,36.90
2022-10-19T04:06:50.655Z,40.55
2022-10-19T04:09:52.683Z,36.13
2022-10-19T04:12:54.700Z,36.53
2022-10-19T04:15:56.724Z,34.97
2022-10-19T04:18:59.450Z,36.70
2022-10-19T04:22:01.822Z,40.22
2022-10-19T04:25:04.154Z,37.70
2022-10-19T04:28:06.338Z,35.72
2022-10-19T04:31:10.040Z,34.87
2022-10-19T04:34:12.452Z,37.83
2022-10-19T04:37:14.430Z,36.97
2022-10-19T04:40:19.854Z,34.75
2022-10-19T04:43:22.516Z,36.28
2022-10-19T04:46:26.214Z,38.77
2022-10-19T04:49:28.509Z,37.23
2022-10-19T04:52:31.261Z,38.03
2022-10-19T04:55:33.235Z,35.88
2022-10-19T04:58:35.451Z,36.03
2022-10-19T05:01:37.553Z,35.07
2022-10-19T05:04:41.831Z,37.37
2022-10-19T05:07:49.261Z,38.65
2022-10-19T05:10:51.156Z,48.08
2022-10-19T05:13:53.221Z,41.45
2022-10-19T05:16:55.130Z,41.50
2022-10-19T05:19:57.560Z,39.03
2022-10-19T05:23:03.261Z,38.65
2022-10-19T05:26:17.595Z,40.70
2022-10-19T05:29:19.993Z,38.13
2022-10-19T05:32:22.264Z,37.03
2022-10-19T05:35:24.214Z,36.70
2022-10-19T05:38:26.223Z,37.60
2022-10-19T05:41:28.355Z,41.10
2022-10-19T05:44:30.470Z,39.30
2022-10-19T05:47:34.288Z,39.53
2022-10-19T05:50:36.778Z,36.13
2022-10-19T05:56:45.963Z,43.38
2022-10-19T05:59:48.066Z,48.25
2022-10-19T06:02:50.022Z,49.10
2022-10-19T06:05:53.271Z,55.37
2022-10-19T06:08:57.006Z,55.00
2022-10-19T06:11:59.006Z,49.38
2022-10-19T06:15:01.058Z,52.65
2022-10-19T06:18:10.665Z,55.20
2022-10-19T06:21:15.466Z,51.50
2022-10-19T06:24:17.451Z,50.10
2022-10-19T06:27:19.523Z,46.78
2022-10-19T06:30:24.448Z,47.40
2022-10-19T06:33:32.999Z,44.40
2022-10-19T06:36:35.333Z,35.97
2022-10-19T06:39:37.390Z,36.05
2022-10-19T06:42:39.433Z,32.70
2022-10-19T06:45:41.463Z,27.02
2022-10-19T06:48:44.157Z,23.70
2022-10-19T06:51:46.042Z,24.53
2022-10-19T06:54:48.028Z,20.33
2022-10-19T06:57:50.087Z,18.77
2022-10-19T07:00:57.356Z,16.23
2022-10-19T07:03:59.478Z,14.18
2022-10-19T07:07:01.520Z,14.50
2022-10-19T07:10:03.934Z,15.52
2022-10-19T07:13:06.390Z,16.25
2022-10-19T07:16:17.991Z,12.20
2022-10-19T07:19:26.901Z,10.95
2022-10-19T07:22:28.913Z,11.13
2022-10-19T07:25:31.028Z,14.10
2022-10-19T07:28:33.238Z,12.52
2022-10-19T07:31:35.718Z,10.55
2022-10-19T07:34:37.684Z,12.60
2022-10-19T07:37:39.767Z,8.17
2022-10-19T07:40:47.603Z,10.95
2022-10-19T07:43:50.420Z,10.07
2022-10-19T07:46:52.474Z,10.30
2022-10-19T07:49:54.440Z,9.95
2022-10-19T07:52:56.398Z,9.00
2022-10-19T07:56:06.553Z,8.68
2022-10-19T07:59:10.185Z,9.20
2022-10-19T08:02:16.519Z,9.00
2022-10-19T08:05:18.659Z,8.52
2022-10-19T08:08:20.673Z,9.77
2022-10-19T08:11:29.880Z,9.45
2022-10-19T08:14:32.122Z,9.70
2022-10-19T08:17:37.227Z,10.65
2022-10-19T08:20:45.178Z,8.63
2022-10-19T08:23:47.146Z,9.13
2022-10-19T08:26:51.384Z,8.45
2022-10-19T08:29:53.397Z,11.00
2022-10-19T08:32:55.383Z,10.23
2022-10-19T08:35:57.450Z,7.85
2022-10-19T08:38:59.679Z,8.27
2022-10-19T08:42:07.539Z,8.40
2022-10-19T08:45:31.260Z,9.65
2022-10-19T08:48:43.103Z,9.55
2022-10-19T08:51:49.890Z,9.00
2022-10-19T08:54:53.715Z,8.67
2022-10-19T08:58:02.641Z,7.95
2022-10-19T09:01:33.805Z,8.73
2022-10-19T09:04:42.057Z,9.80
2022-10-19T09:07:46.094Z,8.70
2022-10-19T09:10:51.602Z,9.33
2022-10-19T09:14:25.481Z,7.90
2022-10-19T09:17:28.207Z,8.05
2022-10-19T09:20:45.150Z,7.87
2022-10-19T09:24:06.800Z,6.68
2022-10-19T09:27:20.909Z,9.40
2022-10-19T09:30:24.325Z,8.00
2022-10-19T09:33:35.044Z,8.48
2022-10-19T09:36:56.992Z,7.00
2022-10-19T09:39:59.255Z,8.02
2022-10-19T09:43:09.600Z,7.53
2022-10-19T09:46:20.377Z,10.85
2022-10-19T09:49:46.369Z,10.15
2022-10-19T09:53:05.168Z,6.85
2022-10-19T09:56:08.826Z,6.60
2022-10-19T09:59:23.223Z,6.97
2022-10-19T10:02:33.423Z,8.60
2022-10-19T10:05:40.565Z,7.72
2022-10-19T10:08:58.992Z,6.78
2022-10-19T10:12:01.285Z,7.87
2022-10-19T10:15:06.611Z,7.50
2022-10-19T10:18:14.826Z,7.65
2022-10-19T10:21:25.911Z,7.80
2022-10-19T10:24:30.943Z,8.20
2022-10-19T10:27:36.233Z,7.95
2022-10-19T10:30:38.805Z,7.00
2022-10-19T10:33:45.791Z,8.07
2022-10-19T10:36:53.934Z,8.20
2022-10-19T10:40:00.429Z,8.45
2022-10-19T10:43:15.827Z,9.20
2022-10-19T10:46:24.110Z,6.60
2022-10-19T10:49:29.211Z,7.25
2022-10-19T10:52:31.656Z,7.65
2022-10-19T10:55:34.460Z,5.55
2022-10-19T10:58:50.162Z,6.43
2022-10-19T11:02:11.313Z,6.60
2022-10-19T11:05:32.387Z,6.53
2022-10-19T11:09:00.055Z,6.65
2022-10-19T11:12:06.511Z,5.87
2022-10-19T11:15:21.455Z,6.45
2022-10-19T11:18:36.929Z,5.70
2022-10-19T11:21:54.847Z,5.55
2022-10-19T11:25:18.661Z,6.90
2022-10-19T11:28:41.651Z,6.95
2022-10-19T11:31:55.477Z,6.20
2022-10-19T11:35:12.512Z,5.73
2022-10-19T11:38:36.421Z,6.03
2022-10-19T11:41:51.309Z,5.85
2022-10-19T11:44:53.172Z,5.75
2022-10-19T11:48:13.798Z,5.68
2022-10-19T11:51:37.314Z,6.40
2022-10-19T11:55:06.821Z,5.80
2022-10-19T11:58:34.578Z,6.10
2022-10-19T12:01:54.440Z,7.12
2022-10-19T12:05:04.410Z,7.22
2022-10-19T12:08:09.585Z,8.90
2022-10-19T12:11:38.675Z,8.68
2022-10-19T12:14:44.005Z,10.68
2022-10-19T12:17:49.574Z,7.28
2022-10-19T12:20:56.351Z,5.82
2022-10-19T12:24:01.684Z,6.90
2022-10-19T12:27:05.397Z,6.15
2022-10-19T12:30:15.212Z,5.55
2022-10-19T12:33:25.362Z,8.82
2022-10-19T12:36:37.215Z,7.55
2022-10-19T12:39:45.960Z,6.43
2022-10-19T12:42:58.657Z,7.07
2022-10-19T12:46:14.942Z,9.85
2022-10-19T12:49:29.098Z,9.77
2022-10-19T12:52:48.411Z,8.35
2022-10-19T12:56:05.334Z,6.60
2022-10-19T12:59:23.530Z,12.57
2022-10-19T13:05:40.815Z,8.70
2022-10-19T13:08:48.094Z,6.85
2022-10-19T13:12:19.482Z,6.20
2022-10-19T13:15:35.118Z,7.68
2022-10-19T13:19:15.637Z,7.28
2022-10-19T13:22:25.746Z,8.40
2022-10-19T13:25:29.946Z,8.75
2022-10-19T13:28:31.898Z,6.67
2022-10-19T13:31:34.721Z,7.25
2022-10-19T13:34:36.726Z,6.00
2022-10-19T13:37:38.676Z,7.82
2022-10-19T13:40:50.086Z,7.47
2022-10-19T13:44:16.245Z,6.53
2022-10-19T13:47:35.581Z,6.70
2022-10-19T13:50:53.014Z,5.78
2022-10-19T13:54:30.224Z,7.28
2022-10-19T13:58:00.533Z,7.68
2022-10-19T14:01:38.086Z,7.10
2022-10-19T14:04:59.848Z,8.07
2022-10-19T14:08:15.670Z,7.87
2022-10-19T14:11:32.539Z,7.87
2022-10-19T14:14:44.872Z,8.77
2022-10-19T14:17:46.902Z,7.23
2022-10-19T14:21:06.586Z,7.80
2022-10-19T14:24:33.355Z,8.02
2022-10-19T14:27:35.913Z,8.02
2022-10-19T14:30:41.413Z,8.02
2022-10-19T14:33:47.910Z,8.40
2022-10-19T14:36:50.821Z,7.68
2022-10-19T14:40:26.525Z,7.93
2022-10-19T14:43:32.663Z,10.43
2022-10-19T14:46:34.907Z,8.93
2022-10-19T14:49:37.524Z,10.63
2022-10-19T14:52:40.690Z,7.35
2022-10-19T14:55:43.393Z,8.80
2022-10-19T14:58:50.152Z,9.88
2022-10-19T15:01:57.026Z,8.23
2022-10-19T15:05:01.872Z,7.90
2022-10-19T15:08:10.256Z,8.63
2022-10-19T15:11:32.664Z,8.68
2022-10-19T15:14:37.204Z,8.43
2022-10-19T15:18:30.312Z,9.18
2022-10-19T15:21:37.585Z,9.87
2022-10-19T15:24:41.050Z,13.68
2022-10-19T15:27:47.210Z,14.82
2022-10-19T15:31:15.134Z,9.73
2022-10-19T15:34:28.166Z,14.98
2022-10-19T15:37:30.136Z,8.53
2022-10-19T15:40:35.655Z,11.48
2022-10-19T15:43:43.401Z,12.68
2022-10-19T15:46:48.277Z,12.80
2022-10-19T15:49:54.478Z,9.80
2022-10-19T15:52:56.435Z,10.30
2022-10-19T15:55:58.644Z,10.43
2022-10-19T15:59:03.274Z,11.57
2022-10-19T16:02:13.537Z,11.65
2022-10-19T16:05:15.962Z,15.63
2022-10-19T16:08:18.384Z,10.13
2022-10-19T16:11:28.042Z,11.93
2022-10-19T16:14:33.076Z,10.40
2022-10-19T16:17:39.514Z,25.77
2022-10-19T16:20:43.284Z,12.00
2022-10-19T16:23:46.722Z,20.80
2022-10-19T16:26:49.219Z,13.25
2022-10-19T16:29:52.093Z,11.18
2022-10-19T16:32:55.047Z,12.40
2022-10-19T16:35:59.089Z,11.02
2022-10-19T16:39:02.243Z,12.67
2022-10-19T16:42:05.247Z,13.40
2022-10-19T16:45:10.898Z,11.93
2022-10-19T16:48:13.801Z,13.23
2022-10-19T16:51:21.805Z,20.45
2022-10-19T16:54:26.985Z,15.67
2022-10-19T16:57:29.941Z,17.25
2022-10-19T17:00:35.416Z,15.35
2022-10-19T17:03:38.809Z,17.00
2022-10-19T17:06:42.116Z,14.45
2022-10-19T17:09:47.877Z,14.63
2022-10-19T17:12:52.775Z,15.38
2022-10-19T17:15:55.607Z,12.88
2022-10-19T17:19:00.510Z,17.90
2022-10-19T17:22:05.869Z,12.90
2022-10-19T17:25:09.432Z,16.30
2022-10-19T17:28:12.526Z,22.25
2022-10-19T17:31:17.394Z,20.37
2022-10-19T17:34:20.681Z,20.52
2022-10-19T17:37:24.681Z,21.80
2022-10-19T17:40:33.612Z,13.60
2022-10-19T17:43:39.946Z,18.75
2022-10-19T17:46:44.646Z,18.17
2022-10-19T17:49:48.409Z,20.33
2022-10-19T17:52:52.767Z,19.55
2022-10-19T17:55:56.619Z,18.87
2022-10-19T17:59:07.108Z,18.00
2022-10-19T18:02:13.341Z,17.20
2022-10-19T18:05:23.792Z,19.55
2022-10-19T18:08:38.327Z,19.73
2022-10-19T18:11:45.370Z,20.03
2022-10-19T18:14:48.982Z,21.52
2022-10-19T18:17:53.009Z,22.60
2022-10-19T18:20:56.158Z,21.35
2022-10-19T18:24:01.943Z,20.62
2022-10-19T18:27:04.665Z,19.23
2022-10-19T18:30:13.895Z,22.58
2022-10-19T18:33:19.741Z,17.10
2022-10-19T18:36:23.845Z,16.37
2022-10-19T18:39:28.904Z,15.50
2022-10-19T18:42:34.126Z,15.47
2022-10-19T18:45:39.018Z,14.20
2022-10-19T18:48:42.209Z,11.75
2022-10-19T18:51:50.763Z,12.23
2022-10-19T18:54:59.265Z,14.32
2022-10-19T18:58:02.759Z,12.80
2022-10-19T19:01:12.219Z,11.45
2022-10-19T19:04:17.088Z,10.93
2022-10-19T19:07:20.398Z,11.18
2022-10-19T19:10:25.351Z,11.60
2022-10-19T19:13:28.729Z,12.60
2022-10-19T19:16:37.678Z,11.52
2022-10-19T19:19:41.778Z,12.88
2022-10-19T19:22:45.196Z,14.50
2022-10-19T19:25:50.439Z,14.27
2022-10-19T19:28:54.630Z,12.70
2022-10-19T19:31:58.452Z,18.85
2022-10-19T19:35:01.866Z,13.90
2022-10-19T19:38:04.964Z,13.25
2022-10-19T19:41:12.631Z,16.58
2022-10-19T19:44:17.711Z,14.43
2022-10-19T19:47:20.917Z,12.77
2022-10-19T19:50:25.431Z,13.43
2022-10-19T19:53:28.652Z,13.27
2022-10-19T19:56:32.506Z,11.95
2022-10-19T19:59:35.951Z,11.73
2022-10-19T20:02:39.822Z,9.98
2022-10-19T20:05:44.256Z,10.43
2022-10-19T20:08:52.782Z,10.50
2022-10-19T20:11:56.364Z,12.52
2022-10-19T20:14:59.665Z,10.03
2022-10-19T20:18:02.927Z,10.68
2022-10-19T20:21:13.302Z,9.52
2022-10-19T20:24:17.358Z,10.10
2022-10-19T20:27:20.386Z,9.00
2022-10-19T20:30:35.559Z,9.53
2022-10-19T20:33:40.550Z,9.52
2022-10-19T20:36:43.404Z,10.07
2022-10-19T20:39:47.771Z,9.80
2022-10-19T20:42:53.194Z,9.70
2022-10-19T20:46:08.693Z,10.23
2022-10-19T20:49:13.263Z,10.02
2022-10-19T20:52:16.344Z,7.97
2022-10-19T20:55:22.401Z,9.20
2022-10-19T20:58:25.123Z,12.30
2022-10-19T21:01:30.015Z,7.83
2022-10-19T21:04:32.599Z,10.32
2022-10-19T21:07:34.690Z,9.02
2022-10-19T21:10:37.235Z,9.90
2022-10-19T21:13:39.284Z,9.95
2022-10-19T21:16:41.399Z,10.70
2022-10-19T21:19:43.389Z,9.63
2022-10-19T21:22:45.402Z,10.38
2022-10-19T21:25:55.079Z,9.60
2022-10-19T21:28:57.732Z,10.40
2022-10-19T21:31:59.792Z,11.53
2022-10-19T21:35:02.087Z,8.85
2022-10-19T21:38:04.038Z,8.35
2022-10-19T21:41:10.903Z,9.90
2022-10-19T21:44:13.849Z,10.88
2022-10-19T21:47:15.960Z,9.43
2022-10-19T21:50:18.230Z,8.85
2022-10-19T21:53:20.872Z,8.48
2022-10-19T21:56:22.876Z,11.35
2022-10-19T21:59:25.265Z,11.63
2022-10-19T22:02:27.261Z,8.50
2022-10-19T22:05:29.310Z,8.25
2022-10-19T22:08:31.557Z,9.73
2022-10-19T22:11:33.548Z,9.35
2022-10-19T22:14:35.453Z,8.67
2022-10-19T22:17:37.482Z,8.40
2022-10-19T22:20:40.740Z,10.38
2022-10-19T22:23:44.935Z,7.20
2022-10-19T22:26:50.791Z,6.80
2022-10-19T22:29:53.296Z,10.40
2022-10-19T22:32:55.959Z,7.37
2022-10-19T22:36:00.138Z,7.32
2022-10-19T22:39:02.174Z,7.82
2022-10-19T22:42:26.241Z,9.57
2022-10-19T22:45:28.210Z,8.07
2022-10-19T22:48:30.328Z,9.73
2022-10-19T22:51:32.683Z,7.15
2022-10-19T22:54:34.786Z,10.77
2022-10-19T22:57:36.809Z,8.60
2022-10-19T23:00:40.444Z,9.13
2022-10-19T23:03:43.231Z,11.37
2022-10-19T23:06:45.357Z,8.45
2022-10-19T23:09:47.350Z,8.30
2022-10-19T23:12:51.517Z,9.45
2022-10-19T23:15:53.582Z,10.87
2022-10-19T23:18:55.795Z,8.90
2022-10-19T23:21:57.727Z,8.95
2022-10-19T23:24:59.721Z,8.75
2022-10-19T23:28:01.850Z,9.10
2022-10-19T23:31:15.284Z,10.53
2022-10-19T23:34:17.384Z,8.33
2022-10-19T23:37:19.422Z,7.68
2022-10-19T23:40:26.337Z,8.35
2022-10-19T23:43:28.914Z,7.60
2022-10-19T23:46:31.053Z,8.57
2022-10-19T23:49:33.019Z,9.87
2022-10-19T23:52:35.193Z,10.27
2022-10-19T23:55:37.628Z,8.10
2022-10-19T23:58:39.556Z,9.85
